sensor_id;sensor_type;location;lat;lon;timestamp;P1;durP1;ratioP1;P2;durP2;ratioP2
3052;SDS011;1536;51.098;6.414;2023-08-06T00:01:48;5.77;;;2.90;;
3052;SDS011;1536;51.098;6.414;2023-08-06T00:04:15;3.83;;;2.80;;
3052;SDS011;1536;51.098;6.414;2023-08-06T00:06:41;6.07;;;2.70;;
3052;SDS011;1536;51.098;6.414;2023-08-06T00:09:08;5.53;;;2.57;;
3052;SDS011;1536;51.098;6.414;2023-08-06T00:11:35;9.83;;;2.60;;
3052;SDS011;1536;51.098;6.414;2023-08-06T00:14:03;5.30;;;2.77;;
3052;SDS011;1536;51.098;6.414;2023-08-06T00:16:30;8.00;;;2.87;;
3052;SDS011;1536;51.098;6.414;2023-08-06T00:18:56;5.10;;;2.73;;
3052;SDS011;1536;51.098;6.414;2023-08-06T00:21:23;3.60;;;2.70;;
3052;SDS011;1536;51.098;6.414;2023-08-06T00:23:50;3.33;;;2.30;;
3052;SDS011;1536;51.098;6.414;2023-08-06T00:26:17;3.30;;;2.30;;
3052;SDS011;1536;51.098;6.414;2023-08-06T00:28:44;10.73;;;3.30;;
3052;SDS011;1536;51.098;6.414;2023-08-06T00:31:12;5.77;;;2.50;;
3052;SDS011;1536;51.098;6.414;2023-08-06T00:33:41;6.23;;;2.37;;
3052;SDS011;1536;51.098;6.414;2023-08-06T00:36:08;4.17;;;2.70;;
3052;SDS011;1536;51.098;6.414;2023-08-06T00:38:35;8.17;;;3.10;;
3052;SDS011;1536;51.098;6.414;2023-08-06T00:41:02;7.73;;;3.10;;
3052;SDS011;1536;51.098;6.414;2023-08-06T00:43:28;5.40;;;2.50;;
3052;SDS011;1536;51.098;6.414;2023-08-06T00:45:55;4.63;;;2.77;;
3052;SDS011;1536;51.098;6.414;2023-08-06T00:48:23;6.60;;;2.70;;
3052;SDS011;1536;51.098;6.414;2023-08-06T00:50:50;5.00;;;2.60;;
3052;SDS011;1536;51.098;6.414;2023-08-06T00:53:17;10.27;;;3.97;;
3052;SDS011;1536;51.098;6.414;2023-08-06T00:55:45;6.60;;;3.20;;
3052;SDS011;1536;51.098;6.414;2023-08-06T00:58:12;10.53;;;2.83;;
3052;SDS011;1536;51.098;6.414;2023-08-06T01:00:40;3.83;;;2.70;;
3052;SDS011;1536;51.098;6.414;2023-08-06T01:03:07;7.77;;;3.00;;
3052;SDS011;1536;51.098;6.414;2023-08-06T01:05:38;6.53;;;2.90;;
3052;SDS011;1536;51.098;6.414;2023-08-06T01:08:12;8.60;;;2.97;;
3052;SDS011;1536;51.098;6.414;2023-08-06T01:10:51;9.00;;;2.70;;
3052;SDS011;1536;51.098;6.414;2023-08-06T01:13:37;5.33;;;3.30;;
3052;SDS011;1536;51.098;6.414;2023-08-06T01:16:08;10.03;;;3.10;;
3052;SDS011;1536;51.098;6.414;2023-08-06T01:18:36;5.03;;;2.30;;
3052;SDS011;1536;51.098;6.414;2023-08-06T01:21:08;5.97;;;2.43;;
3052;SDS011;1536;51.098;6.414;2023-08-06T01:23:34;4.07;;;2.40;;
3052;SDS011;1536;51.098;6.414;2023-08-06T01:26:05;5.10;;;2.20;;
3052;SDS011;1536;51.098;6.414;2023-08-06T01:28:40;8.00;;;2.20;;
3052;SDS011;1536;51.098;6.414;2023-08-06T01:31:10;5.03;;;2.67;;
3052;SDS011;1536;51.098;6.414;2023-08-06T01:33:45;5.73;;;2.40;;
3052;SDS011;1536;51.098;6.414;2023-08-06T01:36:15;5.03;;;2.50;;
3052;SDS011;1536;51.098;6.414;2023-08-06T01:38:43;8.60;;;3.20;;
3052;SDS011;1536;51.098;6.414;2023-08-06T01:41:11;3.07;;;2.30;;
3052;SDS011;1536;51.098;6.414;2023-08-06T01:43:38;7.10;;;2.30;;
3052;SDS011;1536;51.098;6.414;2023-08-06T01:46:06;5.27;;;2.50;;
3052;SDS011;1536;51.098;6.414;2023-08-06T01:48:33;4.10;;;2.10;;
3052;SDS011;1536;51.098;6.414;2023-08-06T01:51:00;4.33;;;2.70;;
3052;SDS011;1536;51.098;6.414;2023-08-06T01:53:28;6.87;;;2.97;;
3052;SDS011;1536;51.098;6.414;2023-08-06T01:55:55;4.43;;;2.27;;
3052;SDS011;1536;51.098;6.414;2023-08-06T01:58:23;3.53;;;2.20;;
3052;SDS011;1536;51.098;6.414;2023-08-06T02:00:50;8.60;;;2.80;;
3052;SDS011;1536;51.098;6.414;2023-08-06T02:03:16;4.93;;;2.37;;
3052;SDS011;1536;51.098;6.414;2023-08-06T02:05:43;5.93;;;2.20;;
3052;SDS011;1536;51.098;6.414;2023-08-06T02:08:10;6.33;;;2.50;;
3052;SDS011;1536;51.098;6.414;2023-08-06T02:10:38;5.20;;;2.00;;
3052;SDS011;1536;51.098;6.414;2023-08-06T02:13:06;4.33;;;2.40;;
3052;SDS011;1536;51.098;6.414;2023-08-06T02:15:33;4.50;;;2.63;;
3052;SDS011;1536;51.098;6.414;2023-08-06T02:18:00;6.93;;;2.57;;
3052;SDS011;1536;51.098;6.414;2023-08-06T02:20:26;3.93;;;2.17;;
3052;SDS011;1536;51.098;6.414;2023-08-06T02:22:53;5.60;;;2.57;;
3052;SDS011;1536;51.098;6.414;2023-08-06T02:25:20;4.40;;;2.30;;
3052;SDS011;1536;51.098;6.414;2023-08-06T02:27:50;4.20;;;2.33;;
3052;SDS011;1536;51.098;6.414;2023-08-06T02:30:17;4.73;;;2.60;;
3052;SDS011;1536;51.098;6.414;2023-08-06T02:32:44;2.07;;;1.87;;
3052;SDS011;1536;51.098;6.414;2023-08-06T02:35:10;4.70;;;2.43;;
3052;SDS011;1536;51.098;6.414;2023-08-06T02:37:37;4.90;;;2.20;;
3052;SDS011;1536;51.098;6.414;2023-08-06T02:40:04;4.83;;;2.10;;
3052;SDS011;1536;51.098;6.414;2023-08-06T02:42:32;4.27;;;2.17;;
3052;SDS011;1536;51.098;6.414;2023-08-06T02:45:00;2.33;;;1.77;;
3052;SDS011;1536;51.098;6.414;2023-08-06T02:47:27;3.60;;;2.43;;
3052;SDS011;1536;51.098;6.414;2023-08-06T02:49:54;3.73;;;2.33;;
3052;SDS011;1536;51.098;6.414;2023-08-06T02:52:20;4.23;;;2.33;;
3052;SDS011;1536;51.098;6.414;2023-08-06T02:54:47;3.50;;;1.90;;
3052;SDS011;1536;51.098;6.414;2023-08-06T02:57:14;4.33;;;2.20;;
3052;SDS011;1536;51.098;6.414;2023-08-06T02:59:41;4.80;;;2.10;;
3052;SDS011;1536;51.098;6.414;2023-08-06T03:02:09;6.30;;;2.83;;
3052;SDS011;1536;51.098;6.414;2023-08-06T03:04:37;2.90;;;1.90;;
3052;SDS011;1536;51.098;6.414;2023-08-06T03:07:05;3.77;;;2.27;;
3052;SDS011;1536;51.098;6.414;2023-08-06T03:09:32;4.77;;;2.10;;
3052;SDS011;1536;51.098;6.414;2023-08-06T03:11:58;4.03;;;2.00;;
3052;SDS011;1536;51.098;6.414;2023-08-06T03:14:25;4.43;;;1.80;;
3052;SDS011;1536;51.098;6.414;2023-08-06T03:16:52;2.37;;;1.90;;
3052;SDS011;1536;51.098;6.414;2023-08-06T03:19:20;3.90;;;1.87;;
3052;SDS011;1536;51.098;6.414;2023-08-06T03:21:48;5.33;;;2.30;;
3052;SDS011;1536;51.098;6.414;2023-08-06T03:24:14;3.27;;;2.20;;
3052;SDS011;1536;51.098;6.414;2023-08-06T03:26:41;12.30;;;1.80;;
3052;SDS011;1536;51.098;6.414;2023-08-06T03:29:08;4.50;;;1.57;;
3052;SDS011;1536;51.098;6.414;2023-08-06T03:31:35;10.30;;;3.23;;
3052;SDS011;1536;51.098;6.414;2023-08-06T03:34:01;2.27;;;1.77;;
3052;SDS011;1536;51.098;6.414;2023-08-06T03:36:29;2.53;;;1.90;;
3052;SDS011;1536;51.098;6.414;2023-08-06T03:38:58;3.97;;;2.87;;
3052;SDS011;1536;51.098;6.414;2023-08-06T03:41:25;3.93;;;1.80;;
3052;SDS011;1536;51.098;6.414;2023-08-06T03:43:52;10.20;;;2.50;;
3052;SDS011;1536;51.098;6.414;2023-08-06T03:46:19;3.30;;;1.90;;
3052;SDS011;1536;51.098;6.414;2023-08-06T03:48:45;4.73;;;2.07;;
3052;SDS011;1536;51.098;6.414;2023-08-06T03:51:12;3.40;;;1.60;;
3052;SDS011;1536;51.098;6.414;2023-08-06T03:53:40;4.23;;;1.90;;
3052;SDS011;1536;51.098;6.414;2023-08-06T03:56:09;3.13;;;1.83;;
3052;SDS011;1536;51.098;6.414;2023-08-06T03:58:36;4.63;;;1.40;;
3052;SDS011;1536;51.098;6.414;2023-08-06T04:01:03;4.83;;;1.70;;
3052;SDS011;1536;51.098;6.414;2023-08-06T04:03:30;2.77;;;1.80;;
3052;SDS011;1536;51.098;6.414;2023-08-06T04:05:57;12.20;;;1.97;;
3052;SDS011;1536;51.098;6.414;2023-08-06T04:08:24;4.40;;;1.67;;
3052;SDS011;1536;51.098;6.414;2023-08-06T04:10:52;4.57;;;1.80;;
3052;SDS011;1536;51.098;6.414;2023-08-06T04:13:19;3.23;;;1.50;;
3052;SDS011;1536;51.098;6.414;2023-08-06T04:15:46;5.97;;;3.10;;
3052;SDS011;1536;51.098;6.414;2023-08-06T04:18:13;3.40;;;2.20;;
3052;SDS011;1536;51.098;6.414;2023-08-06T04:20:43;1.90;;;1.73;;
3052;SDS011;1536;51.098;6.414;2023-08-06T04:23:10;5.20;;;1.60;;
3052;SDS011;1536;51.098;6.414;2023-08-06T04:25:37;3.87;;;1.80;;
3052;SDS011;1536;51.098;6.414;2023-08-06T04:28:05;5.10;;;1.70;;
3052;SDS011;1536;51.098;6.414;2023-08-06T04:30:32;4.30;;;1.80;;
3052;SDS011;1536;51.098;6.414;2023-08-06T04:32:59;4.00;;;1.80;;
3052;SDS011;1536;51.098;6.414;2023-08-06T04:35:25;1.10;;;1.00;;
3052;SDS011;1536;51.098;6.414;2023-08-06T04:37:52;4.50;;;1.60;;
3052;SDS011;1536;51.098;6.414;2023-08-06T04:40:19;1.50;;;1.20;;
3052;SDS011;1536;51.098;6.414;2023-08-06T04:42:46;4.17;;;1.57;;
3052;SDS011;1536;51.098;6.414;2023-08-06T04:45:14;2.13;;;1.00;;
3052;SDS011;1536;51.098;6.414;2023-08-06T04:47:41;3.10;;;1.83;;
3052;SDS011;1536;51.098;6.414;2023-08-06T04:50:08;4.40;;;1.53;;
3052;SDS011;1536;51.098;6.414;2023-08-06T04:52:35;8.63;;;1.63;;
3052;SDS011;1536;51.098;6.414;2023-08-06T04:55:02;2.10;;;1.57;;
3052;SDS011;1536;51.098;6.414;2023-08-06T04:57:30;2.90;;;1.30;;
3052;SDS011;1536;51.098;6.414;2023-08-06T04:59:57;7.07;;;1.70;;
3052;SDS011;1536;51.098;6.414;2023-08-06T05:02:25;2.40;;;1.30;;
3052;SDS011;1536;51.098;6.414;2023-08-06T05:04:52;2.20;;;1.70;;
3052;SDS011;1536;51.098;6.414;2023-08-06T05:07:19;4.60;;;1.60;;
3052;SDS011;1536;51.098;6.414;2023-08-06T05:09:45;5.20;;;1.33;;
3052;SDS011;1536;51.098;6.414;2023-08-06T05:12:12;3.47;;;1.37;;
3052;SDS011;1536;51.098;6.414;2023-08-06T05:14:39;1.57;;;1.10;;
3052;SDS011;1536;51.098;6.414;2023-08-06T05:17:06;2.23;;;1.23;;
3052;SDS011;1536;51.098;6.414;2023-08-06T05:19:34;2.40;;;1.67;;
3052;SDS011;1536;51.098;6.414;2023-08-06T05:22:00;1.87;;;1.30;;
3052;SDS011;1536;51.098;6.414;2023-08-06T05:24:28;4.63;;;1.80;;
3052;SDS011;1536;51.098;6.414;2023-08-06T05:26:54;2.00;;;1.13;;
3052;SDS011;1536;51.098;6.414;2023-08-06T05:29:21;7.70;;;1.80;;
3052;SDS011;1536;51.098;6.414;2023-08-06T05:31:48;2.10;;;1.20;;
3052;SDS011;1536;51.098;6.414;2023-08-06T05:34:15;4.93;;;1.17;;
3052;SDS011;1536;51.098;6.414;2023-08-06T05:36:43;3.10;;;1.70;;
3052;SDS011;1536;51.098;6.414;2023-08-06T05:39:10;3.03;;;1.40;;
3052;SDS011;1536;51.098;6.414;2023-08-06T05:41:37;3.90;;;1.50;;
3052;SDS011;1536;51.098;6.414;2023-08-06T05:44:03;1.90;;;1.50;;
3052;SDS011;1536;51.098;6.414;2023-08-06T05:46:30;2.63;;;1.90;;
3052;SDS011;1536;51.098;6.414;2023-08-06T05:48:57;3.40;;;1.80;;
3052;SDS011;1536;51.098;6.414;2023-08-06T05:51:26;3.30;;;1.60;;
3052;SDS011;1536;51.098;6.414;2023-08-06T05:53:54;3.13;;;1.90;;
3052;SDS011;1536;51.098;6.414;2023-08-06T05:56:21;3.37;;;1.47;;
3052;SDS011;1536;51.098;6.414;2023-08-06T05:58:48;2.60;;;1.67;;
3052;SDS011;1536;51.098;6.414;2023-08-06T06:01:18;3.73;;;2.00;;
3052;SDS011;1536;51.098;6.414;2023-08-06T06:03:44;1.80;;;1.10;;
3052;SDS011;1536;51.098;6.414;2023-08-06T06:06:11;3.13;;;1.33;;
3052;SDS011;1536;51.098;6.414;2023-08-06T06:08:38;2.23;;;1.37;;
3052;SDS011;1536;51.098;6.414;2023-08-06T06:11:06;2.97;;;1.50;;
3052;SDS011;1536;51.098;6.414;2023-08-06T06:13:33;1.97;;;1.20;;
3052;SDS011;1536;51.098;6.414;2023-08-06T06:16:00;1.53;;;1.30;;
3052;SDS011;1536;51.098;6.414;2023-08-06T06:18:27;5.40;;;1.70;;
3052;SDS011;1536;51.098;6.414;2023-08-06T06:20:53;2.50;;;1.40;;
3052;SDS011;1536;51.098;6.414;2023-08-06T06:23:20;2.03;;;1.33;;
3052;SDS011;1536;51.098;6.414;2023-08-06T06:25:48;1.67;;;1.00;;
3052;SDS011;1536;51.098;6.414;2023-08-06T06:28:17;1.60;;;1.23;;
3052;SDS011;1536;51.098;6.414;2023-08-06T06:30:44;1.83;;;1.60;;
3052;SDS011;1536;51.098;6.414;2023-08-06T06:33:11;3.20;;;1.10;;
3052;SDS011;1536;51.098;6.414;2023-08-06T06:35:38;1.00;;;0.80;;
3052;SDS011;1536;51.098;6.414;2023-08-06T06:38:04;1.20;;;0.90;;
3052;SDS011;1536;51.098;6.414;2023-08-06T06:40:31;1.93;;;1.00;;
3052;SDS011;1536;51.098;6.414;2023-08-06T06:42:59;1.40;;;0.90;;
3052;SDS011;1536;51.098;6.414;2023-08-06T06:45:27;1.20;;;1.00;;
3052;SDS011;1536;51.098;6.414;2023-08-06T06:47:53;3.93;;;0.90;;
3052;SDS011;1536;51.098;6.414;2023-08-06T06:50:20;1.10;;;0.80;;
3052;SDS011;1536;51.098;6.414;2023-08-06T06:52:49;0.83;;;0.60;;
3052;SDS011;1536;51.098;6.414;2023-08-06T06:55:16;1.20;;;0.70;;
3052;SDS011;1536;51.098;6.414;2023-08-06T06:57:43;1.00;;;0.70;;
3052;SDS011;1536;51.098;6.414;2023-08-06T07:00:10;1.20;;;0.80;;
3052;SDS011;1536;51.098;6.414;2023-08-06T07:02:38;1.60;;;0.77;;
3052;SDS011;1536;51.098;6.414;2023-08-06T07:05:05;1.27;;;0.73;;
3052;SDS011;1536;51.098;6.414;2023-08-06T07:07:32;1.70;;;0.90;;
3052;SDS011;1536;51.098;6.414;2023-08-06T07:10:00;1.37;;;1.03;;
3052;SDS011;1536;51.098;6.414;2023-08-06T07:12:27;1.73;;;1.00;;
3052;SDS011;1536;51.098;6.414;2023-08-06T07:14:54;1.00;;;0.90;;
3052;SDS011;1536;51.098;6.414;2023-08-06T07:17:21;1.10;;;1.00;;
3052;SDS011;1536;51.098;6.414;2023-08-06T07:19:50;2.03;;;0.90;;
3052;SDS011;1536;51.098;6.414;2023-08-06T07:22:17;1.17;;;1.07;;
3052;SDS011;1536;51.098;6.414;2023-08-06T07:24:43;1.07;;;0.70;;
3052;SDS011;1536;51.098;6.414;2023-08-06T07:27:10;1.20;;;1.03;;
3052;SDS011;1536;51.098;6.414;2023-08-06T07:29:37;2.37;;;1.00;;
3052;SDS011;1536;51.098;6.414;2023-08-06T07:32:05;1.10;;;1.00;;
3052;SDS011;1536;51.098;6.414;2023-08-06T07:34:33;1.30;;;1.20;;
3052;SDS011;1536;51.098;6.414;2023-08-06T07:37:01;3.20;;;1.40;;
3052;SDS011;1536;51.098;6.414;2023-08-06T07:39:29;1.93;;;1.13;;
3052;SDS011;1536;51.098;6.414;2023-08-06T07:41:56;6.97;;;1.93;;
3052;SDS011;1536;51.098;6.414;2023-08-06T07:44:23;2.70;;;2.00;;
3052;SDS011;1536;51.098;6.414;2023-08-06T07:46:50;3.20;;;1.80;;
3052;SDS011;1536;51.098;6.414;2023-08-06T07:49:16;3.03;;;2.23;;
3052;SDS011;1536;51.098;6.414;2023-08-06T07:51:43;2.40;;;2.20;;
3052;SDS011;1536;51.098;6.414;2023-08-06T07:54:12;2.77;;;2.57;;
3052;SDS011;1536;51.098;6.414;2023-08-06T07:56:39;3.20;;;2.47;;
3052;SDS011;1536;51.098;6.414;2023-08-06T07:59:06;3.00;;;2.40;;
3052;SDS011;1536;51.098;6.414;2023-08-06T08:01:33;3.73;;;3.00;;
3052;SDS011;1536;51.098;6.414;2023-08-06T08:03:59;3.47;;;2.70;;
3052;SDS011;1536;51.098;6.414;2023-08-06T08:06:27;4.50;;;2.27;;
3052;SDS011;1536;51.098;6.414;2023-08-06T08:08:54;3.53;;;2.50;;
3052;SDS011;1536;51.098;6.414;2023-08-06T08:11:22;3.20;;;2.40;;
3052;SDS011;1536;51.098;6.414;2023-08-06T08:13:49;2.97;;;2.10;;
3052;SDS011;1536;51.098;6.414;2023-08-06T08:16:16;3.23;;;2.20;;
3052;SDS011;1536;51.098;6.414;2023-08-06T08:18:42;2.10;;;1.90;;
3052;SDS011;1536;51.098;6.414;2023-08-06T08:21:09;2.23;;;1.90;;
3052;SDS011;1536;51.098;6.414;2023-08-06T08:23:36;2.00;;;1.63;;
3052;SDS011;1536;51.098;6.414;2023-08-06T08:26:04;2.03;;;1.93;;
3052;SDS011;1536;51.098;6.414;2023-08-06T08:28:32;3.80;;;1.77;;
3052;SDS011;1536;51.098;6.414;2023-08-06T08:30:58;2.10;;;1.80;;
3052;SDS011;1536;51.098;6.414;2023-08-06T08:33:25;1.77;;;1.23;;
3052;SDS011;1536;51.098;6.414;2023-08-06T08:35:52;1.43;;;1.33;;
3052;SDS011;1536;51.098;6.414;2023-08-06T08:38:19;2.23;;;1.20;;
3052;SDS011;1536;51.098;6.414;2023-08-06T08:40:46;1.60;;;1.30;;
3052;SDS011;1536;51.098;6.414;2023-08-06T08:43:16;1.70;;;1.60;;
3052;SDS011;1536;51.098;6.414;2023-08-06T08:45:46;1.63;;;1.53;;
3052;SDS011;1536;51.098;6.414;2023-08-06T08:48:16;1.37;;;1.03;;
3052;SDS011;1536;51.098;6.414;2023-08-06T08:50:44;1.87;;;1.23;;
3052;SDS011;1536;51.098;6.414;2023-08-06T08:53:12;3.00;;;1.23;;
3052;SDS011;1536;51.098;6.414;2023-08-06T08:55:41;1.77;;;1.10;;
3052;SDS011;1536;51.098;6.414;2023-08-06T08:58:09;1.70;;;1.07;;
3052;SDS011;1536;51.098;6.414;2023-08-06T09:00:36;1.20;;;0.80;;
3052;SDS011;1536;51.098;6.414;2023-08-06T09:03:06;1.47;;;0.70;;
3052;SDS011;1536;51.098;6.414;2023-08-06T09:05:32;1.40;;;0.70;;
3052;SDS011;1536;51.098;6.414;2023-08-06T09:08:02;1.47;;;1.07;;
3052;SDS011;1536;51.098;6.414;2023-08-06T09:10:30;0.90;;;0.73;;
3052;SDS011;1536;51.098;6.414;2023-08-06T09:12:57;1.57;;;0.90;;
3052;SDS011;1536;51.098;6.414;2023-08-06T09:15:26;1.30;;;1.10;;
3052;SDS011;1536;51.098;6.414;2023-08-06T09:17:53;2.10;;;1.77;;
3052;SDS011;1536;51.098;6.414;2023-08-06T09:20:22;1.87;;;1.20;;
3052;SDS011;1536;51.098;6.414;2023-08-06T09:22:48;4.13;;;1.30;;
3052;SDS011;1536;51.098;6.414;2023-08-06T09:25:20;2.03;;;1.10;;
3052;SDS011;1536;51.098;6.414;2023-08-06T09:27:49;1.03;;;0.93;;
3052;SDS011;1536;51.098;6.414;2023-08-06T09:30:28;1.53;;;0.90;;
3052;SDS011;1536;51.098;6.414;2023-08-06T09:32:56;1.30;;;1.20;;
3052;SDS011;1536;51.098;6.414;2023-08-06T09:35:24;1.40;;;1.30;;
3052;SDS011;1536;51.098;6.414;2023-08-06T09:37:53;1.27;;;1.10;;
3052;SDS011;1536;51.098;6.414;2023-08-06T09:40:27;1.30;;;0.97;;
3052;SDS011;1536;51.098;6.414;2023-08-06T09:42:55;4.03;;;1.47;;
3052;SDS011;1536;51.098;6.414;2023-08-06T09:45:22;2.23;;;1.30;;
3052;SDS011;1536;51.098;6.414;2023-08-06T09:47:49;3.00;;;1.50;;
3052;SDS011;1536;51.098;6.414;2023-08-06T09:50:16;2.07;;;1.57;;
3052;SDS011;1536;51.098;6.414;2023-08-06T09:52:45;1.90;;;1.60;;
3052;SDS011;1536;51.098;6.414;2023-08-06T09:55:13;2.50;;;1.60;;
3052;SDS011;1536;51.098;6.414;2023-08-06T09:57:41;1.80;;;1.67;;
3052;SDS011;1536;51.098;6.414;2023-08-06T10:00:08;3.20;;;1.83;;
3052;SDS011;1536;51.098;6.414;2023-08-06T10:02:36;4.90;;;2.17;;
3052;SDS011;1536;51.098;6.414;2023-08-06T10:05:04;5.20;;;2.13;;
3052;SDS011;1536;51.098;6.414;2023-08-06T10:07:32;1.73;;;1.60;;
3052;SDS011;1536;51.098;6.414;2023-08-06T10:10:00;1.50;;;1.30;;
3052;SDS011;1536;51.098;6.414;2023-08-06T10:12:29;3.70;;;1.50;;
3052;SDS011;1536;51.098;6.414;2023-08-06T10:14:59;3.50;;;1.50;;
3052;SDS011;1536;51.098;6.414;2023-08-06T10:17:29;1.67;;;1.57;;
3052;SDS011;1536;51.098;6.414;2023-08-06T10:19:59;3.80;;;1.80;;
3052;SDS011;1536;51.098;6.414;2023-08-06T10:22:26;2.53;;;2.00;;
3052;SDS011;1536;51.098;6.414;2023-08-06T10:24:54;2.67;;;1.90;;
3052;SDS011;1536;51.098;6.414;2023-08-06T10:27:29;3.77;;;2.13;;
3052;SDS011;1536;51.098;6.414;2023-08-06T10:30:07;4.10;;;2.30;;
3052;SDS011;1536;51.098;6.414;2023-08-06T10:32:48;4.23;;;2.43;;
3052;SDS011;1536;51.098;6.414;2023-08-06T10:35:28;3.67;;;2.10;;
3052;SDS011;1536;51.098;6.414;2023-08-06T10:38:02;4.50;;;2.30;;
3052;SDS011;1536;51.098;6.414;2023-08-06T10:40:30;2.80;;;2.20;;
3052;SDS011;1536;51.098;6.414;2023-08-06T10:43:02;4.33;;;2.43;;
3052;SDS011;1536;51.098;6.414;2023-08-06T10:45:32;7.93;;;2.20;;
3052;SDS011;1536;51.098;6.414;2023-08-06T10:48:01;3.60;;;2.40;;
3052;SDS011;1536;51.098;6.414;2023-08-06T10:50:29;3.40;;;2.33;;
3052;SDS011;1536;51.098;6.414;2023-08-06T10:52:56;5.73;;;1.93;;
3052;SDS011;1536;51.098;6.414;2023-08-06T10:55:25;9.17;;;2.17;;
3052;SDS011;1536;51.098;6.414;2023-08-06T10:57:56;3.70;;;2.20;;
3052;SDS011;1536;51.098;6.414;2023-08-06T11:00:25;3.50;;;2.23;;
3052;SDS011;1536;51.098;6.414;2023-08-06T11:02:53;4.43;;;1.90;;
3052;SDS011;1536;51.098;6.414;2023-08-06T11:05:22;5.47;;;2.10;;
3052;SDS011;1536;51.098;6.414;2023-08-06T11:07:49;5.23;;;2.40;;
3052;SDS011;1536;51.098;6.414;2023-08-06T11:10:17;4.37;;;2.53;;
3052;SDS011;1536;51.098;6.414;2023-08-06T11:12:44;2.73;;;2.20;;
3052;SDS011;1536;51.098;6.414;2023-08-06T11:15:11;3.30;;;2.10;;
3052;SDS011;1536;51.098;6.414;2023-08-06T11:17:40;5.77;;;2.10;;
3052;SDS011;1536;51.098;6.414;2023-08-06T11:20:09;5.60;;;2.10;;
3052;SDS011;1536;51.098;6.414;2023-08-06T11:22:37;4.80;;;1.50;;
3052;SDS011;1536;51.098;6.414;2023-08-06T11:25:05;4.73;;;2.33;;
3052;SDS011;1536;51.098;6.414;2023-08-06T11:27:33;2.60;;;1.90;;
3052;SDS011;1536;51.098;6.414;2023-08-06T11:30:00;4.17;;;2.30;;
3052;SDS011;1536;51.098;6.414;2023-08-06T11:32:27;3.23;;;1.90;;
3052;SDS011;1536;51.098;6.414;2023-08-06T11:34:55;4.30;;;1.90;;
3052;SDS011;1536;51.098;6.414;2023-08-06T11:37:22;3.47;;;1.80;;
3052;SDS011;1536;51.098;6.414;2023-08-06T11:39:50;5.80;;;2.10;;
3052;SDS011;1536;51.098;6.414;2023-08-06T11:42:18;3.53;;;1.60;;
3052;SDS011;1536;51.098;6.414;2023-08-06T11:44:45;2.53;;;1.80;;
3052;SDS011;1536;51.098;6.414;2023-08-06T11:47:15;2.23;;;1.60;;
3052;SDS011;1536;51.098;6.414;2023-08-06T11:49:45;4.03;;;1.97;;
3052;SDS011;1536;51.098;6.414;2023-08-06T11:52:16;8.23;;;2.57;;
3052;SDS011;1536;51.098;6.414;2023-08-06T11:54:59;4.83;;;2.00;;
3052;SDS011;1536;51.098;6.414;2023-08-06T11:57:29;4.20;;;2.80;;
3052;SDS011;1536;51.098;6.414;2023-08-06T12:00:01;9.63;;;2.77;;
3052;SDS011;1536;51.098;6.414;2023-08-06T12:02:31;4.27;;;2.60;;
3052;SDS011;1536;51.098;6.414;2023-08-06T12:05:03;3.27;;;2.17;;
3052;SDS011;1536;51.098;6.414;2023-08-06T12:07:46;5.87;;;2.10;;
3052;SDS011;1536;51.098;6.414;2023-08-06T12:10:16;3.00;;;1.67;;
3052;SDS011;1536;51.098;6.414;2023-08-06T12:12:44;4.07;;;1.80;;
3052;SDS011;1536;51.098;6.414;2023-08-06T12:15:12;4.50;;;2.60;;
3052;SDS011;1536;51.098;6.414;2023-08-06T12:17:39;2.93;;;2.17;;
3052;SDS011;1536;51.098;6.414;2023-08-06T12:20:06;3.87;;;2.13;;
3052;SDS011;1536;51.098;6.414;2023-08-06T12:22:34;2.70;;;2.10;;
3052;SDS011;1536;51.098;6.414;2023-08-06T12:25:07;3.20;;;2.07;;
3052;SDS011;1536;51.098;6.414;2023-08-06T12:27:37;6.43;;;2.80;;
3052;SDS011;1536;51.098;6.414;2023-08-06T12:30:06;3.00;;;2.20;;
3052;SDS011;1536;51.098;6.414;2023-08-06T12:32:33;8.20;;;2.87;;
3052;SDS011;1536;51.098;6.414;2023-08-06T12:35:00;5.57;;;2.60;;
3052;SDS011;1536;51.098;6.414;2023-08-06T12:37:27;4.13;;;1.93;;
3052;SDS011;1536;51.098;6.414;2023-08-06T12:39:55;3.77;;;2.20;;
3052;SDS011;1536;51.098;6.414;2023-08-06T12:42:23;6.30;;;2.57;;
3052;SDS011;1536;51.098;6.414;2023-08-06T12:44:51;4.10;;;2.40;;
3052;SDS011;1536;51.098;6.414;2023-08-06T12:47:18;7.43;;;2.53;;
3052;SDS011;1536;51.098;6.414;2023-08-06T12:49:45;7.70;;;2.97;;
3052;SDS011;1536;51.098;6.414;2023-08-06T12:52:14;4.03;;;2.63;;
3052;SDS011;1536;51.098;6.414;2023-08-06T12:54:41;2.37;;;2.03;;
3052;SDS011;1536;51.098;6.414;2023-08-06T12:57:11;4.00;;;2.67;;
3052;SDS011;1536;51.098;6.414;2023-08-06T12:59:39;4.50;;;2.87;;
3052;SDS011;1536;51.098;6.414;2023-08-06T13:02:06;10.03;;;2.97;;
3052;SDS011;1536;51.098;6.414;2023-08-06T13:04:32;5.97;;;3.50;;
3052;SDS011;1536;51.098;6.414;2023-08-06T13:06:59;2.97;;;2.40;;
3052;SDS011;1536;51.098;6.414;2023-08-06T13:09:26;3.53;;;2.13;;
3052;SDS011;1536;51.098;6.414;2023-08-06T13:11:53;3.30;;;2.47;;
3052;SDS011;1536;51.098;6.414;2023-08-06T13:14:20;2.37;;;2.00;;
3052;SDS011;1536;51.098;6.414;2023-08-06T13:16:48;9.00;;;3.23;;
3052;SDS011;1536;51.098;6.414;2023-08-06T13:19:15;3.53;;;2.63;;
3052;SDS011;1536;51.098;6.414;2023-08-06T13:21:58;5.90;;;3.60;;
3052;SDS011;1536;51.098;6.414;2023-08-06T13:24:27;7.13;;;3.23;;
3052;SDS011;1536;51.098;6.414;2023-08-06T13:26:54;3.30;;;2.97;;
3052;SDS011;1536;51.098;6.414;2023-08-06T13:29:21;7.93;;;3.30;;
3052;SDS011;1536;51.098;6.414;2023-08-06T13:31:49;7.17;;;2.63;;
3052;SDS011;1536;51.098;6.414;2023-08-06T13:34:17;6.03;;;3.40;;
3052;SDS011;1536;51.098;6.414;2023-08-06T13:36:43;6.93;;;3.60;;
3052;SDS011;1536;51.098;6.414;2023-08-06T13:39:10;5.77;;;4.00;;
3052;SDS011;1536;51.098;6.414;2023-08-06T13:41:37;2.67;;;2.30;;
3052;SDS011;1536;51.098;6.414;2023-08-06T13:44:05;5.53;;;1.83;;
3052;SDS011;1536;51.098;6.414;2023-08-06T13:46:32;3.83;;;1.40;;
3052;SDS011;1536;51.098;6.414;2023-08-06T13:49:00;2.83;;;1.60;;
3052;SDS011;1536;51.098;6.414;2023-08-06T13:51:27;3.00;;;1.33;;
3052;SDS011;1536;51.098;6.414;2023-08-06T13:53:55;5.03;;;1.83;;
3052;SDS011;1536;51.098;6.414;2023-08-06T13:56:23;4.50;;;1.30;;
3052;SDS011;1536;51.098;6.414;2023-08-06T13:58:51;6.63;;;1.17;;
3052;SDS011;1536;51.098;6.414;2023-08-06T14:01:17;3.33;;;1.53;;
3052;SDS011;1536;51.098;6.414;2023-08-06T14:03:45;2.90;;;1.30;;
3052;SDS011;1536;51.098;6.414;2023-08-06T14:06:14;3.93;;;1.60;;
3052;SDS011;1536;51.098;6.414;2023-08-06T14:08:41;5.80;;;1.47;;
3052;SDS011;1536;51.098;6.414;2023-08-06T14:11:08;2.30;;;1.70;;
3052;SDS011;1536;51.098;6.414;2023-08-06T14:13:35;4.53;;;2.00;;
3052;SDS011;1536;51.098;6.414;2023-08-06T14:16:02;6.77;;;1.60;;
3052;SDS011;1536;51.098;6.414;2023-08-06T14:18:29;3.73;;;1.40;;
3052;SDS011;1536;51.098;6.414;2023-08-06T14:20:56;4.70;;;1.87;;
3052;SDS011;1536;51.098;6.414;2023-08-06T14:23:25;6.73;;;2.40;;
3052;SDS011;1536;51.098;6.414;2023-08-06T14:25:53;3.10;;;1.20;;
3052;SDS011;1536;51.098;6.414;2023-08-06T14:28:21;4.23;;;1.60;;
3052;SDS011;1536;51.098;6.414;2023-08-06T14:30:47;4.23;;;1.53;;
3052;SDS011;1536;51.098;6.414;2023-08-06T14:33:14;3.47;;;1.10;;
3052;SDS011;1536;51.098;6.414;2023-08-06T14:35:43;5.70;;;2.10;;
3052;SDS011;1536;51.098;6.414;2023-08-06T14:38:09;5.80;;;2.10;;
3052;SDS011;1536;51.098;6.414;2023-08-06T14:40:38;2.57;;;1.00;;
3052;SDS011;1536;51.098;6.414;2023-08-06T14:43:05;3.80;;;1.30;;
3052;SDS011;1536;51.098;6.414;2023-08-06T14:45:47;4.40;;;1.43;;
3052;SDS011;1536;51.098;6.414;2023-08-06T14:48:14;3.27;;;1.60;;
3052;SDS011;1536;51.098;6.414;2023-08-06T14:50:41;1.60;;;1.10;;
3052;SDS011;1536;51.098;6.414;2023-08-06T14:53:09;2.43;;;1.27;;
3052;SDS011;1536;51.098;6.414;2023-08-06T14:55:38;3.20;;;1.20;;
3052;SDS011;1536;51.098;6.414;2023-08-06T14:58:06;5.27;;;1.37;;
3052;SDS011;1536;51.098;6.414;2023-08-06T15:00:34;5.97;;;1.57;;
3052;SDS011;1536;51.098;6.414;2023-08-06T15:03:01;2.13;;;1.00;;
3052;SDS011;1536;51.098;6.414;2023-08-06T15:05:27;4.87;;;1.20;;
3052;SDS011;1536;51.098;6.414;2023-08-06T15:07:54;4.27;;;1.30;;
3052;SDS011;1536;51.098;6.414;2023-08-06T15:10:21;3.30;;;1.40;;
3052;SDS011;1536;51.098;6.414;2023-08-06T15:12:49;3.43;;;1.40;;
3052;SDS011;1536;51.098;6.414;2023-08-06T15:15:16;7.40;;;1.87;;
3052;SDS011;1536;51.098;6.414;2023-08-06T15:17:43;4.40;;;1.27;;
3052;SDS011;1536;51.098;6.414;2023-08-06T15:20:11;7.67;;;1.50;;